x

Passage Island, Mi (pilm4) Weather Station

1:00pm - Mon 2nd Mar 2015 All times are CST. -6 hours from GMT.

  • Wind
    16mph, 18mph gusts
  • Air Temp 16°f
  • Sea Pressure 1030.5mb
  • Passage Island, Mi
  • Passage Island, Mi

More Historic Weather Station data

Upgrade to MSW Pro to gain access to the past 30 days of data for over 8000 Wavebouys and Weather Stations around the globe.

Join Pro

Comparision Forecast

View Surf forecast
   
Mon 03/02 1:00pm 16 18 mph 1030.5mb 16f
12:00pm 16 20 mph 1031.5mb 13f
11:00am 20 26 mph 1031.2mb 13f
10:00am 15 18 mph 1031mb 12f
9:00am 17 21 mph 1031mb 12f
8:00am 21 25 mph 1030.3mb 12f
7:00am 29 32 mph 1028.5mb 12f
6:00am 31 34 mph 1028.5mb 13f
5:00am 26 30 mph 1027.8mb 14f
4:00am 31 38 mph 1026.4mb 15f
3:00am 32 36 mph 1025.7mb 16f
2:00am 28 34 mph 1025.1mb 17f
1:00am 40 44 mph 1023mb 18f
12:00am 31 36 mph 1022.6mb 19f
Sun 03/01 11:00pm 26 31 mph 1021.9mb 20f
10:00pm 36 41 mph 1020.6mb 20f
9:00pm 32 37 mph 1019.8mb 22f
8:00pm 31 33 mph 1019mb 23f
7:00pm 32 34 mph 1018.4mb 24f
6:00pm 28 31 mph 1017.8mb 24f
5:00pm 29 31 mph 1017.7mb 23f
4:00pm 31 33 mph 1017.7mb 23f
3:00pm 30 33 mph 1017.8mb 22f
2:00pm 22 24 mph 1018.3mb 22f
1:00pm 22 23 mph 1019.1mb 20f
12:00pm 26 29 mph 1019.9mb 20f
11:00am 25 26 mph 1020.3mb 19f
10:00am 24 26 mph 1020.8mb 19f
9:00am 31 33 mph 1021.1mb 19f
8:00am 28 31 mph 1021.4mb 18f
7:00am 18 21 mph 1021.9mb 17f
6:00am 21 23 mph 1022.5mb 16f
5:00am 16 20 mph 1023.1mb 16f
4:00am 20 24 mph 1023.3mb 16f
3:00am 21 23 mph 1023.9mb 16f
2:00am 18 21 mph 1024.8mb 17f
1:00am 28 32 mph 1025.1mb 18f
12:00am 29 32 mph 1025.4mb 19f
Sat 02/28 11:00pm 26 30 mph 1026.3mb 19f
10:00pm 32 36 mph 1026.6mb 21f
9:00pm 23 26 mph 1027.4mb 22f
8:00pm 22 24 mph 1028mb 21f
7:00pm 22 25 mph 1028.6mb 21f
6:00pm 24 28 mph 1028.9mb 20f
5:00pm 29 32 mph 1029.4mb 20f
4:00pm 23 25 mph 1030.1mb 19f
3:00pm 18 22 mph 1030.8mb 19f
2:00pm 25 28 mph 1031.2mb 18f
1:00pm 26 29 mph 1032.1mb 17f
12:00pm 25 28 mph 1032.7mb 17f
11:00am 16 20 mph 1033.2mb 17f
10:00am 16 17 mph 1033.4mb 15f
9:00am 20
mph
1033.5mb 14f
8:00am 20 22 mph 1033.3mb 14f
7:00am 15 18 mph 1033.1mb 14f
6:00am 14 16 mph 1033.3mb 13f
5:00am 20 21 mph 1032.6mb 14f
4:00am 20 22 mph 1032.1mb 15f
3:00am 22 26 mph 1031.8mb 17f
2:00am 21 24 mph 1031.5mb 17f
1:00am 22 23 mph 1031.1mb 17f
12:00am 23 25 mph 1030.6mb 16f
Fri 02/27 11:00pm 25 29 mph 1030.3mb 18f
10:00pm 22 24 mph 1030.5mb 18f
9:00pm 23 26 mph 1030.4mb 17f
8:00pm 28 30 mph 1029.8mb 17f
7:00pm 26 32 mph 1029.8mb 16f
6:00pm 17 20 mph 1029.5mb 15f
5:00pm 22 23 mph 1029.4mb 16f
4:00pm 23 24 mph 1029.4mb 17f
3:00pm 24 26 mph 1029.8mb 16f
2:00pm 25 28 mph 1030mb 13f
1:00pm 25 28 mph 1030.3mb 10f
12:00pm 25 28 mph 1031.1mb 8f
11:00am 23 26 mph 1031.4mb 5f
10:00am 20 22 mph 1031.1mb 3f
9:00am 23 25 mph 1031.2mb 3f
8:00am 26 28 mph 1030.7mb 2f
7:00am 23 25 mph 1030.3mb 2f
6:00am 28 29 mph 1030mb 4f
5:00am 24 25 mph 1029.8mb 5f
4:00am 23 25 mph 1029.6mb 5f
3:00am 14 15 mph 1029.7mb 6f
2:00am 17 20 mph 1029.6mb 6f
1:00am 15 17 mph 1029.6mb 6f
12:00am 20 21 mph 1029.4mb 7f
Thu 02/26 11:00pm 21 22 mph 1029.4mb 6f
10:00pm 22 25 mph 1029.5mb 7f
9:00pm 23 25 mph 1029.1mb 8f